Condor Express — 9V5373 — position and weather

sailwx.info

Track history (hours):
 
Tides and Currents Weather Stations Pressure Air Temp Water Temp Dewpoint Dewpoint Depression Visibility Wind Speed Wind Dir Waves Ship Positions

Condor Express

Operator: Condor Marine Services

Last reported at 2018-Jun-10 06:24 UTC. Time now 2018-Jun-22 18:40 UTC.
Position N 38°01' E 122°29'.
Warning: this ship's position is 12 days out of date.

Length 235 m; draft 7.6 m.

Type: Cargo ship. MMSI: 563014500.

Date/timePositionNaut miles runAvg speedWind from/ knotsBaromVisibWave heightAir tempDewpointWater temp
2018-Jun-10 06:24N 38°01' E 122°29'511.9
2018-Jun-10 06:00N 38°03' E 122°24'4712.5
2018-Jun-10 02:15N 38°20' E 121°28'312.4
2018-Jun-10 02:00N 38°21' E 121°24'611.9
2018-Jun-10 01:30N 38°23' E 121°17'611.9
2018-Jun-10 01:00N 38°26' E 121°10'611.4
2018-Jun-10 00:30N 38°28' E 121°04'611.7
2018-Jun-10 00:00N 38°31' E 120°57'2312.1
2018-Jun-09 22:04N 38°37' E 120°28'112.6
2018-Jun-09 22:00N 38°37' E 120°27'612.7
2018-Jun-09 21:30N 38°38' E 120°19'2313.1
2018-Jun-09 19:47N 38°42' E 119°51'413.3
2018-Jun-09 19:28N 38°42' E 119°46'612.7
2018-Jun-09 19:00N 38°44' E 119°38'612.8
2018-Jun-09 18:30N 38°49' E 119°32'613.0
2018-Jun-09 18:00N 38°53' E 119°27'712.9
2018-Jun-09 17:28N 38°58' E 119°20'613.1
2018-Jun-09 17:00N 39°01' E 119°14'16 0.7
2018-Jun-08 17:34N 39°12' E 118°59'0 0.1
2018-Jun-08 17:28N 39°12' E 118°59'0 0.0
2018-Jun-07 18:40N 39°12' E 118°59'14 0.3
2018-Jun-05 20:30N 38°60' E 119°07'0 0.0
2018-Jun-05 19:51N 38°60' E 119°07'0 0.0
2018-Jun-05 19:21N 38°60' E 119°07'0 0.0
2018-Jun-05 13:24N 39°00' E 119°07'0 0.1
2018-Jun-05 12:51N 39°00' E 119°07'0 0.0
2018-Jun-05 12:30N 39°00' E 119°07'0 0.1
2018-Jun-05 12:00N 38°60' E 119°07'0 0.0
2018-Jun-03 16:30N 39°00' E 119°07'115 3.1
2018-Jun-02 04:01N 38°24' E 121°27'012.4
2018-Jun-02 04:00N 38°24' E 121°27'1811.7
2018-Jun-02 02:30N 38°19' E 121°48'611.5
2018-Jun-02 01:57N 38°17' E 121°56'511.8
2018-Jun-02 01:30N 38°15' E 122°03'612.6
2018-Jun-02 01:00N 38°14' E 122°10'611.4
2018-Jun-02 00:30N 38°12' E 122°17'611.5
2018-Jun-02 00:00N 38°11' E 122°25'611.6
2018-Jun-01 23:30N 38°10' E 122°32'611.5
2018-Jun-01 23:00N 38°08' E 122°39'611.5
2018-Jun-01 22:30N 38°05' E 122°45'611.8
2018-Jun-01 22:00N 38°01' E 122°51'611.5
2018-Jun-01 21:30N 37°58' E 122°57'611.2
2018-Jun-01 20:59N 37°54' E 123°03'  
Track history (hours):
 
Tides and Currents Weather Stations Pressure Air Temp Water Temp Dewpoint Dewpoint Depression Visibility Wind Speed Wind Dir Waves Ship Positions

Condor Express

Operator: Condor Marine Services

Last reported at 2018-Jun-10 06:24 UTC. Time now 2018-Jun-22 18:40 UTC.
Position N 38°01' E 122°29'.
Warning: this ship's position is 12 days out of date.

Length 235 m; draft 7.6 m.

Type: Cargo ship. MMSI: 563014500.

Date/timePositionNaut miles runAvg speedWind from/ knotsBaromVisibWave heightAir tempDewpointWater temp
2018-Jun-10 06:24N 38°01' E 122°29'511.9
2018-Jun-10 06:00N 38°03' E 122°24'4712.5
2018-Jun-10 02:15N 38°20' E 121°28'312.4
2018-Jun-10 02:00N 38°21' E 121°24'611.9
2018-Jun-10 01:30N 38°23' E 121°17'611.9
2018-Jun-10 01:00N 38°26' E 121°10'611.4
2018-Jun-10 00:30N 38°28' E 121°04'611.7
2018-Jun-10 00:00N 38°31' E 120°57'2312.1
2018-Jun-09 22:04N 38°37' E 120°28'112.6
2018-Jun-09 22:00N 38°37' E 120°27'612.7
2018-Jun-09 21:30N 38°38' E 120°19'2313.1
2018-Jun-09 19:47N 38°42' E 119°51'413.3
2018-Jun-09 19:28N 38°42' E 119°46'612.7
2018-Jun-09 19:00N 38°44' E 119°38'612.8
2018-Jun-09 18:30N 38°49' E 119°32'613.0
2018-Jun-09 18:00N 38°53' E 119°27'712.9
2018-Jun-09 17:28N 38°58' E 119°20'613.1
2018-Jun-09 17:00N 39°01' E 119°14'16 0.7
2018-Jun-08 17:34N 39°12' E 118°59'0 0.1
2018-Jun-08 17:28N 39°12' E 118°59'0 0.0
2018-Jun-07 18:40N 39°12' E 118°59'14 0.3
2018-Jun-05 20:30N 38°60' E 119°07'0 0.0
2018-Jun-05 19:51N 38°60' E 119°07'0 0.0
2018-Jun-05 19:21N 38°60' E 119°07'0 0.0
2018-Jun-05 13:24N 39°00' E 119°07'0 0.1
2018-Jun-05 12:51N 39°00' E 119°07'0 0.0
2018-Jun-05 12:30N 39°00' E 119°07'0 0.1
2018-Jun-05 12:00N 38°60' E 119°07'0 0.0
2018-Jun-03 16:30N 39°00' E 119°07'115 3.1
2018-Jun-02 04:01N 38°24' E 121°27'012.4
2018-Jun-02 04:00N 38°24' E 121°27'1811.7
2018-Jun-02 02:30N 38°19' E 121°48'611.5
2018-Jun-02 01:57N 38°17' E 121°56'511.8
2018-Jun-02 01:30N 38°15' E 122°03'612.6
2018-Jun-02 01:00N 38°14' E 122°10'611.4
2018-Jun-02 00:30N 38°12' E 122°17'611.5
2018-Jun-02 00:00N 38°11' E 122°25'611.6
2018-Jun-01 23:30N 38°10' E 122°32'611.5
2018-Jun-01 23:00N 38°08' E 122°39'611.5
2018-Jun-01 22:30N 38°05' E 122°45'611.8
2018-Jun-01 22:00N 38°01' E 122°51'611.5
2018-Jun-01 21:30N 37°58' E 122°57'611.2
2018-Jun-01 20:59N 37°54' E 123°03'  

Dump ship's entire track history